createdAt,value
2023-04-21T00:01:31.883Z,82.17
2023-04-21T00:06:34.157Z,82.25
2023-04-21T00:11:35.757Z,82.12
2023-04-21T00:16:37.822Z,82.29
2023-04-21T00:21:39.582Z,82.09
2023-04-21T00:26:41.307Z,82.86
2023-04-21T00:31:42.985Z,83.22
2023-04-21T00:36:44.708Z,83.00
2023-04-21T00:41:47.016Z,83.62
2023-04-21T00:46:49.270Z,83.90
2023-04-21T00:51:52.071Z,83.60
2023-04-21T00:56:54.949Z,84.18
2023-04-21T01:01:56.819Z,84.13
2023-04-21T01:06:58.609Z,84.14
2023-04-21T01:12:07.611Z,84.81
2023-04-21T01:17:09.401Z,85.07
2023-04-21T01:22:12.228Z,84.94
2023-04-21T01:27:21.235Z,85.03
2023-04-21T01:32:24.922Z,85.18
2023-04-21T01:37:29.632Z,85.53
2023-04-21T01:42:33.889Z,85.25
2023-04-21T01:47:35.593Z,86.00
2023-04-21T01:52:37.378Z,85.93
2023-04-21T01:57:38.991Z,86.23
2023-04-21T02:02:40.871Z,85.85
2023-04-21T02:07:42.722Z,86.25
2023-04-21T02:12:44.417Z,85.77
2023-04-21T02:17:46.870Z,85.72
2023-04-21T02:22:48.674Z,85.71
2023-04-21T02:27:50.348Z,86.01
2023-04-21T02:32:52.033Z,86.21
2023-04-21T02:37:53.779Z,86.51
2023-04-21T02:42:57.372Z,86.40
2023-04-21T02:48:00.439Z,86.63
2023-04-21T02:53:02.294Z,86.71
2023-04-21T02:58:03.942Z,86.53
2023-04-21T03:03:05.683Z,86.52
2023-04-21T03:08:07.481Z,86.53
2023-04-21T03:13:09.945Z,86.58
2023-04-21T03:18:12.426Z,87.37
2023-04-21T03:23:14.211Z,87.18
2023-04-21T03:28:17.327Z,86.95
2023-04-21T03:33:18.956Z,87.24
2023-04-21T03:38:28.765Z,87.26
2023-04-21T03:43:30.474Z,87.17
2023-04-21T03:48:32.587Z,87.55
2023-04-21T03:53:34.188Z,87.27
2023-04-21T03:58:36.159Z,87.49
2023-04-21T04:03:38.049Z,87.64
2023-04-21T04:08:39.779Z,87.81
2023-04-21T04:13:41.433Z,88.00
2023-04-21T04:18:43.058Z,87.89
2023-04-21T04:23:45.166Z,88.10
2023-04-21T04:28:46.992Z,87.62
2023-04-21T04:33:48.579Z,87.96
2023-04-21T04:38:50.568Z,88.10
2023-04-21T04:43:53.591Z,87.93
2023-04-21T04:48:55.182Z,88.44
2023-04-21T04:53:56.747Z,88.42
2023-04-21T04:58:58.359Z,88.38
2023-04-21T05:04:00.193Z,88.73
2023-04-21T05:09:04.735Z,88.61
2023-04-21T05:14:06.727Z,88.85
2023-04-21T05:19:08.779Z,88.76
2023-04-21T05:24:10.762Z,88.65
2023-04-21T05:29:12.351Z,88.47
2023-04-21T05:34:13.995Z,88.96
2023-04-21T05:39:17.681Z,89.07
2023-04-21T05:44:19.656Z,89.29
2023-04-21T05:49:21.854Z,89.50
2023-04-21T05:54:23.494Z,89.85
2023-04-21T05:59:26.490Z,89.98
2023-04-21T06:04:28.495Z,90.10
2023-04-21T06:09:30.537Z,89.95
2023-04-21T06:14:32.135Z,89.77
2023-04-21T06:19:36.920Z,90.08
2023-04-21T06:24:39.126Z,89.55
2023-04-21T06:29:42.645Z,89.38
2023-04-21T06:34:44.276Z,89.35
2023-04-21T06:39:46.006Z,89.17
2023-04-21T06:44:48.902Z,89.01
2023-04-21T06:49:52.501Z,88.80
2023-04-21T06:54:54.167Z,88.41
2023-04-21T06:59:55.787Z,88.11
2023-04-21T07:04:57.441Z,87.97
2023-04-21T07:09:59.235Z,87.84
2023-04-21T07:15:00.926Z,87.80
2023-04-21T07:20:02.559Z,87.53
2023-04-21T07:25:07.533Z,86.98
2023-04-21T07:30:09.882Z,86.62
2023-04-21T07:35:11.801Z,86.97
2023-04-21T07:40:13.977Z,85.59
2023-04-21T07:45:16.007Z,85.06
2023-04-21T07:50:17.667Z,85.37
2023-04-21T07:55:19.357Z,86.72
2023-04-21T08:00:21.177Z,86.96
2023-04-21T08:05:22.920Z,85.88
2023-04-21T08:10:26.380Z,85.19
2023-04-21T08:15:28.076Z,84.35
2023-04-21T08:20:30.051Z,82.24
2023-04-21T08:25:31.908Z,82.49
2023-04-21T08:30:34.136Z,81.91
2023-04-21T08:35:36.426Z,82.25
2023-04-21T08:40:38.923Z,80.26
2023-04-21T08:45:41.343Z,79.36
2023-04-21T08:50:44.519Z,80.22
2023-04-21T08:55:53.740Z,79.38
2023-04-21T09:01:01.651Z,78.43
2023-04-21T09:06:08.232Z,77.47
2023-04-21T09:11:14.105Z,77.08
2023-04-21T09:16:23.233Z,76.29
2023-04-21T09:21:28.759Z,75.50
2023-04-21T09:26:32.698Z,74.56
2023-04-21T09:31:35.655Z,74.26
2023-04-21T09:36:37.590Z,74.24
2023-04-21T09:41:39.189Z,73.91
2023-04-21T09:46:43.553Z,72.86
2023-04-21T09:56:52.874Z,72.95
2023-04-21T10:01:55.294Z,72.33
2023-04-21T10:06:58.355Z,69.21
2023-04-21T10:12:01.643Z,69.79
2023-04-21T10:17:04.444Z,70.22
2023-04-21T10:22:06.707Z,69.10
2023-04-21T10:27:11.975Z,68.59
2023-04-21T10:32:30.890Z,69.60
2023-04-21T10:37:32.556Z,69.07
2023-04-21T10:42:35.332Z,68.41
2023-04-21T10:47:38.564Z,68.04
2023-04-21T10:52:43.454Z,68.12
2023-04-21T10:57:45.460Z,67.46
2023-04-21T11:02:53.855Z,66.50
2023-04-21T11:08:02.358Z,65.34
2023-04-21T11:13:04.019Z,66.38
2023-04-21T11:18:07.262Z,64.58
2023-04-21T11:23:08.993Z,63.79
2023-04-21T11:28:10.631Z,64.02
2023-04-21T11:33:12.697Z,64.15
2023-04-21T11:38:15.907Z,63.41
2023-04-21T11:43:17.857Z,62.38
2023-04-21T11:48:19.964Z,61.89
2023-04-21T11:53:24.580Z,62.24
2023-04-21T11:58:26.741Z,61.32
2023-04-21T12:03:28.569Z,60.98
2023-04-21T12:08:32.021Z,60.57
2023-04-21T12:13:33.755Z,59.41
2023-04-21T12:18:36.789Z,59.76
2023-04-21T12:23:39.165Z,58.18
2023-04-21T12:28:40.796Z,59.26
2023-04-21T12:33:42.481Z,58.21
2023-04-21T12:38:44.607Z,57.87
2023-04-21T12:43:46.261Z,57.75
2023-04-21T12:48:48.807Z,57.75
2023-04-21T12:53:50.578Z,57.84
2023-04-21T12:58:52.271Z,57.56
2023-04-21T13:03:54.051Z,57.54
2023-04-21T13:08:56.037Z,57.17
2023-04-21T13:13:58.288Z,56.60
2023-04-21T13:19:00.050Z,56.37
2023-04-21T13:24:02.852Z,54.59
2023-04-21T13:29:04.502Z,53.47
2023-04-21T13:34:06.158Z,52.99
2023-04-21T13:39:11.006Z,52.09
2023-04-21T13:44:13.063Z,50.49
2023-04-21T13:49:14.753Z,50.43
2023-04-21T13:54:16.456Z,50.44
2023-04-21T13:59:21.027Z,48.86
2023-04-21T14:04:22.888Z,49.99
2023-04-21T14:09:25.075Z,50.54
2023-04-21T14:14:37.702Z,50.58
2023-04-21T14:19:39.937Z,48.68
2023-04-21T14:24:41.806Z,48.25
2023-04-21T14:29:43.524Z,49.10
2023-04-21T14:34:45.179Z,47.04
2023-04-21T14:39:46.816Z,47.16
2023-04-21T14:44:48.545Z,46.08
2023-04-21T14:49:55.114Z,45.84
2023-04-21T14:54:57.063Z,47.20
2023-04-21T14:59:59.042Z,46.49
2023-04-21T15:05:01.478Z,45.89
2023-04-21T15:10:03.305Z,45.46
2023-04-21T15:15:05.745Z,44.67
2023-04-21T15:20:09.723Z,46.26
2023-04-21T15:25:11.638Z,45.87
2023-04-21T15:30:13.481Z,46.25
2023-04-21T15:35:15.079Z,45.86
2023-04-21T15:40:16.851Z,46.57
2023-04-21T15:45:18.649Z,46.25
2023-04-21T15:50:20.267Z,46.07
2023-04-21T15:55:22.908Z,45.94
2023-04-21T16:00:24.640Z,45.41
2023-04-21T16:05:29.165Z,45.71
2023-04-21T16:10:31.184Z,44.98
2023-04-21T16:15:32.821Z,44.39
2023-04-21T16:20:35.390Z,44.65
2023-04-21T16:25:37.036Z,44.71
2023-04-21T16:30:43.512Z,45.67
2023-04-21T16:35:46.181Z,44.90
2023-04-21T16:40:49.660Z,44.72
2023-04-21T16:45:51.404Z,45.05
2023-04-21T16:50:54.066Z,44.79
2023-04-21T16:55:56.264Z,44.82
2023-04-21T17:00:58.076Z,45.48
2023-04-21T17:06:00.473Z,45.48
2023-04-21T17:11:02.259Z,45.72
2023-04-21T17:16:04.036Z,46.36
2023-04-21T17:21:06.251Z,46.28
2023-04-21T17:26:10.080Z,46.23
2023-04-21T17:31:16.042Z,46.35
2023-04-21T17:36:18.438Z,46.92
2023-04-21T17:41:20.209Z,47.51
2023-04-21T17:46:24.941Z,47.92
2023-04-21T17:51:28.658Z,49.09
2023-04-21T17:56:31.209Z,50.13
2023-04-21T18:01:33.136Z,52.46
2023-04-21T18:06:35.356Z,53.74
2023-04-21T18:11:38.350Z,55.57
2023-04-21T18:16:40.047Z,56.87
2023-04-21T18:21:42.000Z,58.14
2023-04-21T18:26:43.598Z,59.09
2023-04-21T18:31:45.470Z,59.67
2023-04-21T18:36:48.666Z,60.48
2023-04-21T18:41:50.846Z,61.28
2023-04-21T18:46:52.538Z,61.84
2023-04-21T18:51:54.356Z,62.69
2023-04-21T18:56:57.613Z,63.49
2023-04-21T19:02:00.184Z,63.90
2023-04-21T19:07:02.068Z,64.14
2023-04-21T19:12:04.223Z,64.38
2023-04-21T19:17:06.019Z,64.88
2023-04-21T19:22:07.655Z,65.12
2023-04-21T19:27:09.424Z,65.49
2023-04-21T19:32:11.102Z,66.16
2023-04-21T19:37:13.293Z,66.56
2023-04-21T19:42:15.030Z,66.75
2023-04-21T19:47:16.650Z,66.86
2023-04-21T19:52:18.486Z,67.36
2023-04-21T19:57:20.495Z,67.98
2023-04-21T20:02:22.173Z,68.46
2023-04-21T20:07:23.881Z,69.03
2023-04-21T20:12:25.641Z,69.55
2023-04-21T20:17:27.647Z,70.32
2023-04-21T20:22:29.445Z,70.94
2023-04-21T20:27:31.325Z,71.33
2023-04-21T20:32:32.990Z,71.50
2023-04-21T20:37:34.718Z,72.13
2023-04-21T20:42:36.558Z,71.67
2023-04-21T20:47:39.069Z,71.03
2023-04-21T20:52:40.936Z,70.49
2023-04-21T20:57:42.601Z,70.33
2023-04-21T21:02:44.512Z,70.62
2023-04-21T21:07:46.703Z,70.42
2023-04-21T21:12:48.259Z,70.30
2023-04-21T21:17:50.072Z,70.69
2023-04-21T21:22:51.788Z,70.77
2023-04-21T21:27:53.606Z,70.95
2023-04-21T21:32:55.919Z,71.65
2023-04-21T21:37:57.623Z,71.58
2023-04-21T21:42:59.221Z,71.67
2023-04-21T21:48:01.032Z,72.10
2023-04-21T21:53:02.650Z,71.67
2023-04-21T21:58:04.417Z,72.25
2023-04-21T22:03:06.223Z,72.18
2023-04-21T22:08:07.941Z,72.40
2023-04-21T22:13:09.823Z,72.89
2023-04-21T22:18:11.522Z,72.83
2023-04-21T22:23:13.108Z,73.06
2023-04-21T22:28:14.694Z,73.35
2023-04-21T22:33:16.276Z,73.58
2023-04-21T22:38:18.095Z,73.51
2023-04-21T22:43:19.721Z,73.48
2023-04-21T22:48:21.362Z,73.59
2023-04-21T22:53:23.015Z,73.45
2023-04-21T22:58:26.131Z,73.29
2023-04-21T23:03:27.932Z,73.90
2023-04-21T23:08:29.698Z,73.82
2023-04-21T23:13:32.804Z,73.80
2023-04-21T23:18:34.463Z,73.89
2023-04-21T23:23:36.235Z,73.83
2023-04-21T23:28:37.854Z,73.52
2023-04-21T23:33:39.548Z,73.63
2023-04-21T23:38:41.552Z,73.38
2023-04-21T23:43:43.183Z,73.58
2023-04-21T23:48:44.818Z,73.43
2023-04-21T23:53:46.541Z,72.40
2023-04-21T23:58:48.168Z,72.62
